createdAt,value
2019-03-08T00:01:31.336Z,5.30
2019-03-08T00:04:00.692Z,4.40
2019-03-08T00:06:32.033Z,5.70
2019-03-08T00:09:01.356Z,4.20
2019-03-08T00:11:31.624Z,3.90
2019-03-08T00:14:00.985Z,4.00
2019-03-08T00:16:33.297Z,4.43
2019-03-08T00:19:03.889Z,4.70
2019-03-08T00:21:33.157Z,4.90
2019-03-08T00:24:03.243Z,4.10
2019-03-08T00:26:33.517Z,4.40
2019-03-08T00:29:02.758Z,4.10
2019-03-08T00:31:33.169Z,3.97
2019-03-08T00:34:03.475Z,4.47
2019-03-08T00:36:34.270Z,4.33
2019-03-08T00:39:06.163Z,3.97
2019-03-08T00:41:37.729Z,4.73
2019-03-08T00:44:07.016Z,4.40
2019-03-08T00:46:37.487Z,4.50
2019-03-08T00:49:09.650Z,4.10
2019-03-08T00:51:39.848Z,4.13
2019-03-08T00:54:10.161Z,4.63
2019-03-08T00:56:40.456Z,4.70
2019-03-08T00:59:09.771Z,4.20
2019-03-08T01:01:39.136Z,4.07
2019-03-08T01:04:08.424Z,4.73
2019-03-08T01:06:40.633Z,4.10
2019-03-08T01:09:11.068Z,4.17
2019-03-08T01:11:41.516Z,3.57
2019-03-08T01:14:10.933Z,4.13
2019-03-08T01:16:41.295Z,3.77
2019-03-08T01:19:11.536Z,3.80
2019-03-08T01:21:41.808Z,3.93
2019-03-08T01:24:11.195Z,3.90
2019-03-08T01:26:43.021Z,3.80
2019-03-08T01:29:12.360Z,3.17
2019-03-08T01:31:42.740Z,3.07
2019-03-08T01:34:11.986Z,3.40
2019-03-08T01:36:42.190Z,3.13
2019-03-08T01:39:12.465Z,4.07
2019-03-08T01:41:42.833Z,3.20
2019-03-08T01:44:12.208Z,2.97
2019-03-08T01:46:43.541Z,3.23
2019-03-08T01:49:13.843Z,3.10
2019-03-08T01:51:44.137Z,3.50
2019-03-08T01:54:14.451Z,2.90
2019-03-08T01:56:45.617Z,3.27
2019-03-08T01:59:16.346Z,3.40
2019-03-08T02:01:45.705Z,3.03
2019-03-08T02:04:15.953Z,3.40
2019-03-08T02:06:46.502Z,3.40
2019-03-08T02:09:17.388Z,3.70
2019-03-08T02:11:47.566Z,3.40
2019-03-08T02:14:17.805Z,3.00
2019-03-08T02:16:48.018Z,3.37
2019-03-08T02:19:20.941Z,3.13
2019-03-08T02:21:50.711Z,3.17
2019-03-08T02:24:23.788Z,3.03
2019-03-08T02:26:53.954Z,2.90
2019-03-08T02:29:24.241Z,3.37
2019-03-08T02:31:56.398Z,3.13
2019-03-08T02:34:26.661Z,2.93
2019-03-08T02:36:55.943Z,3.20
2019-03-08T02:39:26.191Z,3.50
2019-03-08T02:41:55.567Z,3.00
2019-03-08T02:44:25.837Z,3.10
2019-03-08T02:46:56.135Z,3.47
2019-03-08T02:49:25.473Z,3.67
2019-03-08T02:51:54.771Z,3.53
2019-03-08T02:54:25.198Z,2.80
2019-03-08T02:56:54.015Z,3.40
2019-03-08T02:59:24.275Z,3.03
2019-03-08T03:01:52.993Z,3.53
2019-03-08T03:04:23.244Z,3.10
2019-03-08T03:06:55.057Z,3.30
2019-03-08T03:09:27.225Z,2.47
2019-03-08T03:11:57.484Z,2.83
2019-03-08T03:14:28.176Z,2.60
2019-03-08T03:16:58.477Z,2.97
2019-03-08T03:19:28.911Z,2.90
2019-03-08T03:22:00.179Z,3.20
2019-03-08T03:24:32.268Z,2.80
2019-03-08T03:27:01.002Z,3.17
2019-03-08T03:29:32.457Z,3.23
2019-03-08T03:32:01.743Z,2.77
2019-03-08T03:34:32.015Z,2.80
2019-03-08T03:37:02.322Z,2.57
2019-03-08T03:39:33.161Z,2.40
2019-03-08T03:42:02.441Z,2.60
2019-03-08T03:44:31.762Z,3.10
2019-03-08T03:47:01.068Z,2.60
2019-03-08T03:49:30.354Z,2.40
2019-03-08T03:52:00.590Z,2.23
2019-03-08T03:54:32.783Z,2.57
2019-03-08T03:57:05.036Z,2.40
2019-03-08T03:59:36.944Z,2.53
2019-03-08T04:02:07.214Z,2.23
2019-03-08T04:04:37.513Z,2.03
2019-03-08T04:07:06.849Z,2.00
2019-03-08T04:09:38.644Z,2.47
2019-03-08T04:12:08.909Z,1.80
2019-03-08T04:14:41.043Z,2.00
2019-03-08T04:17:11.280Z,1.70
2019-03-08T04:19:42.987Z,1.47
2019-03-08T04:22:13.233Z,1.33
2019-03-08T04:24:43.598Z,1.40
2019-03-08T04:27:12.903Z,1.60
2019-03-08T04:29:42.807Z,1.00
2019-03-08T04:32:14.896Z,1.10
2019-03-08T04:34:45.840Z,1.73
2019-03-08T04:37:16.137Z,1.10
2019-03-08T04:39:45.447Z,1.00
2019-03-08T04:42:14.180Z,1.13
2019-03-08T04:44:44.570Z,1.20
2019-03-08T04:47:14.829Z,1.40
2019-03-08T04:49:49.423Z,0.80
2019-03-08T04:52:18.732Z,1.17
2019-03-08T04:54:49.808Z,1.40
2019-03-08T04:57:20.013Z,1.00
2019-03-08T04:59:50.279Z,1.43
2019-03-08T05:02:21.991Z,1.43
2019-03-08T05:04:52.244Z,1.30
2019-03-08T05:07:21.548Z,1.20
2019-03-08T05:09:54.803Z,1.13
2019-03-08T05:12:26.662Z,1.40
2019-03-08T05:14:57.101Z,0.87
2019-03-08T05:17:27.477Z,1.37
2019-03-08T05:19:57.846Z,1.00
2019-03-08T05:22:28.110Z,1.03
2019-03-08T05:24:58.409Z,1.23
2019-03-08T05:27:29.715Z,1.37
2019-03-08T05:29:59.977Z,1.13
2019-03-08T05:32:30.284Z,1.20
2019-03-08T05:34:59.053Z,1.33
2019-03-08T05:37:27.790Z,1.20
2019-03-08T05:39:57.117Z,1.13
2019-03-08T05:42:28.299Z,1.20
2019-03-08T05:44:59.061Z,1.30
2019-03-08T05:47:28.341Z,1.27
2019-03-08T05:49:57.641Z,1.23
2019-03-08T05:52:27.986Z,1.23
2019-03-08T05:54:58.737Z,1.53
2019-03-08T05:57:29.007Z,1.10
2019-03-08T05:59:58.279Z,1.40
2019-03-08T06:02:27.595Z,1.30
2019-03-08T06:04:57.806Z,1.20
2019-03-08T06:07:28.079Z,1.00
2019-03-08T06:09:58.844Z,1.20
2019-03-08T06:12:29.134Z,1.30
2019-03-08T06:14:58.459Z,1.23
2019-03-08T06:17:28.750Z,1.30
2019-03-08T06:19:58.956Z,1.43
2019-03-08T06:22:29.252Z,1.30
2019-03-08T06:24:58.044Z,1.47
2019-03-08T06:27:29.170Z,1.13
2019-03-08T06:29:58.455Z,1.53
2019-03-08T06:32:30.063Z,1.30
2019-03-08T06:34:59.336Z,1.07
2019-03-08T06:37:28.773Z,1.10
2019-03-08T06:39:59.476Z,1.23
2019-03-08T06:42:30.292Z,1.57
2019-03-08T06:45:00.591Z,1.20
2019-03-08T06:47:30.861Z,1.10
2019-03-08T06:50:02.515Z,1.33
2019-03-08T06:52:31.870Z,1.13
2019-03-08T06:55:02.092Z,1.53
2019-03-08T06:57:31.369Z,1.30
2019-03-08T07:00:02.370Z,1.20
2019-03-08T07:02:33.197Z,1.00
2019-03-08T07:05:02.509Z,1.30
2019-03-08T07:07:34.196Z,1.50
2019-03-08T07:10:05.930Z,1.43
2019-03-08T07:12:36.329Z,1.40
2019-03-08T07:15:06.913Z,1.33
2019-03-08T07:17:35.894Z,0.90
2019-03-08T07:20:10.447Z,1.33
2019-03-08T07:23:00.078Z,1.30
2019-03-08T07:25:37.644Z,1.37
2019-03-08T07:28:10.724Z,1.00
2019-03-08T07:30:42.709Z,1.33
2019-03-08T07:33:14.543Z,1.00
2019-03-08T07:35:46.959Z,1.00
2019-03-08T07:38:33.810Z,1.00
2019-03-08T07:41:05.683Z,1.10
2019-03-08T07:43:40.398Z,1.17
2019-03-08T07:46:11.581Z,1.10
2019-03-08T07:48:41.690Z,0.90
2019-03-08T07:51:14.227Z,0.90
2019-03-08T07:54:04.116Z,1.20
2019-03-08T07:56:51.823Z,0.87
2019-03-08T07:59:23.728Z,1.30
2019-03-08T08:02:00.471Z,1.10
2019-03-08T08:04:39.740Z,1.00
2019-03-08T08:07:26.576Z,0.83
2019-03-08T08:09:58.550Z,0.70
2019-03-08T08:12:30.066Z,1.03
2019-03-08T08:15:07.474Z,0.50
2019-03-08T08:17:50.282Z,1.30
2019-03-08T08:20:25.046Z,0.80
2019-03-08T08:22:55.953Z,1.00
2019-03-08T08:25:26.924Z,0.70
2019-03-08T08:28:03.155Z,0.97
2019-03-08T08:30:36.781Z,0.53
2019-03-08T08:33:22.528Z,0.60
2019-03-08T08:35:54.550Z,0.50
2019-03-08T08:38:40.114Z,0.57
2019-03-08T08:41:15.407Z,0.60
2019-03-08T08:43:51.983Z,0.63
2019-03-08T08:46:40.201Z,0.60
2019-03-08T08:49:19.624Z,0.70
2019-03-08T08:51:50.575Z,0.83
2019-03-08T08:54:37.525Z,0.70
2019-03-08T08:57:11.023Z,0.97
2019-03-08T08:59:48.881Z,0.60
2019-03-08T09:02:22.488Z,0.50
2019-03-08T09:04:53.386Z,0.90
2019-03-08T09:07:42.350Z,0.60
2019-03-08T09:10:14.869Z,0.83
2019-03-08T09:13:06.541Z,0.50
2019-03-08T09:15:44.234Z,0.70
2019-03-08T09:18:14.368Z,1.13
2019-03-08T09:20:56.693Z,0.93
2019-03-08T09:23:35.311Z,0.80
2019-03-08T09:26:17.906Z,0.80
2019-03-08T09:28:49.808Z,0.70
2019-03-08T09:31:29.328Z,0.60
2019-03-08T09:34:01.943Z,0.60
2019-03-08T09:36:33.842Z,0.60
2019-03-08T09:39:17.233Z,0.80
2019-03-08T09:41:53.664Z,0.60
2019-03-08T09:44:34.217Z,0.60
2019-03-08T09:47:05.128Z,0.30
2019-03-08T09:49:43.088Z,0.77
2019-03-08T09:52:13.517Z,0.57
2019-03-08T09:54:45.519Z,0.50
2019-03-08T09:57:28.527Z,0.60
2019-03-08T10:00:05.037Z,0.40
2019-03-08T10:02:37.711Z,0.60
2019-03-08T10:05:18.768Z,0.50
2019-03-08T10:08:01.189Z,0.23
2019-03-08T10:10:41.842Z,0.50
2019-03-08T10:13:15.443Z,0.67
2019-03-08T10:15:59.334Z,0.70
2019-03-08T10:18:31.304Z,0.70
2019-03-08T10:21:03.190Z,0.63
2019-03-08T10:23:35.201Z,0.67
2019-03-08T10:26:23.982Z,0.67
2019-03-08T10:29:11.902Z,0.80
2019-03-08T10:31:43.817Z,0.70
2019-03-08T10:34:24.815Z,1.07
2019-03-08T10:37:05.221Z,0.70
2019-03-08T10:39:44.977Z,0.57
2019-03-08T10:42:16.879Z,0.60
2019-03-08T10:45:03.535Z,0.93
2019-03-08T10:47:44.241Z,0.70
2019-03-08T10:50:20.270Z,0.50
2019-03-08T10:52:52.144Z,0.77
2019-03-08T10:55:30.695Z,0.70
2019-03-08T10:58:01.654Z,0.70
2019-03-08T11:00:34.266Z,0.60
2019-03-08T11:03:14.030Z,0.50
2019-03-08T11:05:52.014Z,0.40
2019-03-08T11:08:31.244Z,0.73
2019-03-08T11:11:06.366Z,0.63
2019-03-08T11:13:48.478Z,0.63
2019-03-08T11:16:31.310Z,0.73
2019-03-08T11:19:08.706Z,0.50
2019-03-08T11:21:38.411Z,0.60
2019-03-08T11:24:10.255Z,0.87
2019-03-08T11:26:55.279Z,0.93
2019-03-08T11:29:27.252Z,0.90
2019-03-08T11:31:59.031Z,0.60
2019-03-08T11:34:33.549Z,0.97
2019-03-08T11:37:05.457Z,0.90
2019-03-08T11:39:55.673Z,0.80
2019-03-08T11:42:30.291Z,0.87
2019-03-08T11:45:03.922Z,0.60
2019-03-08T11:47:37.259Z,0.80
2019-03-08T11:50:17.649Z,0.50
2019-03-08T11:52:51.604Z,0.60
2019-03-08T11:55:32.204Z,0.70
2019-03-08T11:58:18.189Z,1.10
2019-03-08T12:00:58.928Z,0.60
2019-03-08T12:03:46.895Z,0.50
2019-03-08T12:06:18.831Z,0.93
2019-03-08T12:08:55.487Z,0.87
2019-03-08T12:11:45.042Z,0.90
2019-03-08T12:14:36.011Z,0.90
2019-03-08T12:17:09.776Z,1.83
2019-03-08T12:19:50.672Z,0.93
2019-03-08T12:22:24.170Z,0.80
2019-03-08T12:25:02.134Z,0.40
2019-03-08T12:27:35.972Z,0.53
2019-03-08T12:30:12.460Z,0.60
2019-03-08T12:32:47.282Z,0.53
2019-03-08T12:35:27.694Z,0.90
2019-03-08T12:38:00.301Z,0.80
2019-03-08T12:40:32.206Z,0.90
2019-03-08T12:43:20.877Z,0.93
2019-03-08T12:45:52.747Z,0.97
2019-03-08T12:48:40.461Z,0.80
2019-03-08T12:51:27.405Z,0.73
2019-03-08T12:54:16.051Z,0.70
2019-03-08T12:56:59.326Z,1.00
2019-03-08T12:59:46.212Z,0.70
2019-03-08T13:02:32.168Z,0.77
2019-03-08T13:05:19.026Z,0.97
2019-03-08T13:07:54.732Z,0.80
2019-03-08T13:10:24.059Z,0.93
2019-03-08T13:12:54.397Z,0.93
2019-03-08T13:15:24.658Z,0.70
2019-03-08T13:17:54.005Z,0.80
2019-03-08T13:20:23.313Z,0.70
2019-03-08T13:22:52.652Z,0.60
2019-03-08T13:25:22.056Z,0.90
2019-03-08T13:27:51.372Z,0.90
2019-03-08T13:30:22.572Z,1.13
2019-03-08T13:32:51.853Z,0.50
2019-03-08T13:35:24.017Z,0.70
2019-03-08T13:37:54.514Z,0.80
2019-03-08T13:40:25.113Z,0.60
2019-03-08T13:42:55.378Z,0.70
2019-03-08T13:45:24.795Z,0.80
2019-03-08T13:47:54.097Z,0.50
2019-03-08T13:50:24.376Z,0.80
2019-03-08T13:52:54.707Z,0.43
2019-03-08T13:55:25.006Z,0.60
2019-03-08T13:57:55.284Z,0.50
2019-03-08T14:00:26.930Z,0.60
2019-03-08T14:02:57.274Z,0.70
2019-03-08T14:05:28.864Z,0.80
2019-03-08T14:07:59.119Z,0.53
2019-03-08T14:10:29.462Z,0.67
2019-03-08T14:13:01.662Z,0.60
2019-03-08T14:15:33.263Z,0.60
2019-03-08T14:18:04.372Z,0.67
2019-03-08T14:20:38.455Z,0.60
2019-03-08T14:23:07.809Z,0.63
2019-03-08T14:25:37.977Z,0.60
2019-03-08T14:28:08.238Z,0.90
2019-03-08T14:30:41.352Z,0.93
2019-03-08T14:33:11.600Z,1.37
2019-03-08T14:35:41.936Z,1.10
2019-03-08T14:38:11.250Z,0.80
2019-03-08T14:40:43.378Z,0.77
2019-03-08T14:43:18.903Z,0.83
2019-03-08T14:46:06.790Z,0.83
2019-03-08T14:48:37.146Z,0.50
2019-03-08T14:51:09.373Z,0.83
2019-03-08T14:53:39.125Z,0.70
2019-03-08T14:56:08.429Z,0.70
2019-03-08T14:58:40.368Z,0.83
2019-03-08T15:01:09.915Z,0.90
2019-03-08T15:03:43.885Z,1.40
2019-03-08T15:06:12.623Z,0.90
2019-03-08T15:08:43.345Z,0.90
2019-03-08T15:11:15.640Z,0.70
2019-03-08T15:13:47.955Z,1.23
2019-03-08T15:16:18.292Z,0.90
2019-03-08T15:18:48.910Z,0.60
2019-03-08T15:21:18.223Z,2.00
2019-03-08T15:23:50.890Z,1.50
2019-03-08T15:30:00.433Z,1.43
2019-03-08T15:32:29.779Z,1.13
2019-03-08T15:34:59.135Z,1.40
2019-03-08T15:37:29.361Z,0.93
2019-03-08T15:40:01.521Z,1.40
2019-03-08T15:42:30.740Z,1.23
2019-03-08T15:45:01.807Z,1.10
2019-03-08T15:47:36.145Z,1.30
2019-03-08T15:50:08.422Z,1.20
2019-03-08T15:52:37.738Z,1.87
2019-03-08T15:55:07.381Z,1.20
2019-03-08T15:57:36.646Z,1.10
2019-03-08T16:00:15.768Z,1.10
2019-03-08T16:02:47.455Z,0.90
2019-03-08T16:05:23.963Z,1.03
2019-03-08T16:07:52.335Z,0.77
2019-03-08T16:10:24.654Z,0.87
2019-03-08T16:12:53.992Z,0.97
2019-03-08T16:15:23.311Z,0.83
2019-03-08T16:17:53.656Z,0.50
2019-03-08T16:20:25.614Z,0.80
2019-03-08T16:22:56.658Z,0.70
2019-03-08T16:25:31.765Z,0.70
2019-03-08T16:28:02.000Z,0.87
2019-03-08T16:30:43.730Z,0.70
2019-03-08T16:33:31.316Z,1.10
2019-03-08T16:36:10.864Z,0.80
2019-03-08T16:38:42.769Z,0.87
2019-03-08T16:41:16.173Z,0.67
2019-03-08T16:43:46.932Z,0.70
2019-03-08T16:46:21.037Z,0.70
2019-03-08T16:48:58.485Z,0.73
2019-03-08T16:51:34.390Z,0.70
2019-03-08T16:54:06.322Z,0.80
2019-03-08T16:56:38.250Z,0.50
2019-03-08T16:59:25.086Z,0.67
2019-03-08T17:01:59.559Z,0.90
2019-03-08T17:04:38.928Z,1.07
2019-03-08T17:07:16.941Z,1.00
2019-03-08T17:09:48.878Z,1.10
2019-03-08T17:12:38.629Z,1.20
2019-03-08T17:15:27.712Z,1.20
2019-03-08T17:18:07.179Z,0.93
2019-03-08T17:20:41.812Z,1.10
2019-03-08T17:23:15.504Z,2.10
2019-03-08T17:26:01.124Z,0.93
2019-03-08T17:28:35.850Z,2.70
2019-03-08T17:31:22.061Z,1.93
2019-03-08T17:33:56.755Z,1.33
2019-03-08T17:36:45.464Z,1.43
2019-03-08T17:39:22.058Z,1.77
2019-03-08T17:42:10.151Z,1.47
2019-03-08T17:44:53.839Z,1.70
2019-03-08T17:47:27.531Z,1.50
2019-03-08T17:50:01.053Z,1.23
2019-03-08T17:52:33.109Z,1.90
2019-03-08T17:55:06.697Z,2.90
2019-03-08T17:57:42.598Z,1.83
2019-03-08T18:00:22.993Z,1.73
2019-03-08T18:02:58.253Z,1.77
2019-03-08T18:05:29.163Z,3.27
2019-03-08T18:08:06.800Z,1.40
2019-03-08T18:10:41.160Z,1.60
2019-03-08T18:13:27.624Z,2.10
2019-03-08T18:16:05.202Z,1.90
2019-03-08T18:18:55.635Z,1.90
2019-03-08T18:21:43.375Z,2.47
2019-03-08T18:24:23.910Z,2.37
2019-03-08T18:27:02.604Z,2.10
2019-03-08T18:29:34.608Z,2.43
2019-03-08T18:32:05.692Z,3.57
2019-03-08T18:34:42.436Z,2.60
2019-03-08T18:37:30.157Z,2.73
2019-03-08T18:40:03.173Z,2.30
2019-03-08T18:42:37.671Z,2.50
2019-03-08T18:45:23.347Z,2.17
2019-03-08T18:47:57.457Z,2.37
2019-03-08T18:50:33.433Z,3.20
2019-03-08T18:53:12.454Z,2.90
2019-03-08T18:55:50.288Z,2.50
2019-03-08T18:58:33.270Z,2.40
2019-03-08T19:01:21.165Z,2.40
2019-03-08T19:03:53.092Z,2.40
2019-03-08T19:06:39.962Z,3.00
2019-03-08T19:09:21.039Z,2.33
2019-03-08T19:12:07.211Z,4.07
2019-03-08T19:14:40.657Z,2.40
2019-03-08T19:17:27.853Z,3.60
2019-03-08T19:20:18.234Z,2.50
2019-03-08T19:23:03.698Z,2.27
2019-03-08T19:25:38.221Z,3.40
2019-03-08T19:28:08.592Z,2.50
2019-03-08T19:30:40.347Z,1.80
2019-03-08T19:33:16.933Z,2.27
2019-03-08T19:35:48.847Z,2.80
2019-03-08T19:38:37.462Z,2.90
2019-03-08T19:41:21.047Z,3.10
2019-03-08T19:43:59.434Z,2.77
2019-03-08T19:46:31.371Z,3.40
2019-03-08T19:49:19.432Z,4.13
2019-03-08T19:51:57.193Z,3.43
2019-03-08T19:54:46.575Z,3.80
2019-03-08T19:57:32.614Z,4.00
2019-03-08T20:00:10.575Z,3.83
2019-03-08T20:02:45.104Z,4.30
2019-03-08T20:05:16.133Z,4.60
2019-03-08T20:07:56.488Z,3.70
2019-03-08T20:10:45.580Z,3.67
2019-03-08T20:13:17.486Z,3.50
2019-03-08T20:16:06.193Z,3.80
2019-03-08T20:18:46.034Z,3.80
2019-03-08T20:21:29.551Z,3.80
2019-03-08T20:23:59.977Z,3.43
2019-03-08T20:26:46.441Z,2.83
2019-03-08T20:29:20.210Z,2.93
2019-03-08T20:31:54.874Z,3.63
2019-03-08T20:34:27.053Z,2.70
2019-03-08T20:36:58.004Z,2.83
2019-03-08T20:39:35.597Z,2.67
2019-03-08T20:42:13.547Z,2.33
2019-03-08T20:44:48.164Z,2.70
2019-03-08T20:47:23.158Z,3.20
2019-03-08T20:49:52.473Z,2.90
2019-03-08T20:52:22.927Z,3.00
2019-03-08T20:54:53.818Z,2.93
2019-03-08T20:57:24.107Z,2.77
2019-03-08T20:59:53.382Z,3.33
2019-03-08T21:02:24.494Z,2.70
2019-03-08T21:04:54.700Z,2.63
2019-03-08T21:07:25.002Z,3.03
2019-03-08T21:09:54.344Z,3.50
2019-03-08T21:12:25.289Z,2.90
2019-03-08T21:14:54.023Z,3.60
2019-03-08T21:17:23.558Z,3.17
2019-03-08T21:19:54.537Z,3.57
2019-03-08T21:22:24.843Z,2.37
2019-03-08T21:24:54.155Z,3.23
2019-03-08T21:27:24.453Z,2.90
2019-03-08T21:29:53.790Z,2.87
2019-03-08T21:32:24.476Z,2.90
2019-03-08T21:34:54.733Z,3.10
2019-03-08T21:37:25.009Z,2.90
2019-03-08T21:39:55.268Z,3.27
2019-03-08T21:42:24.655Z,2.60
2019-03-08T21:44:55.001Z,3.27
2019-03-08T21:47:26.075Z,2.50
2019-03-08T21:49:55.370Z,3.30
2019-03-08T21:52:25.487Z,2.57
2019-03-08T21:54:54.815Z,2.87
2019-03-08T21:57:25.234Z,3.10
2019-03-08T21:59:55.984Z,2.57
2019-03-08T22:02:25.304Z,3.57
2019-03-08T22:04:55.781Z,3.30
2019-03-08T22:07:26.000Z,3.30
2019-03-08T22:09:57.875Z,3.07
2019-03-08T22:12:28.114Z,3.47
2019-03-08T22:15:01.518Z,3.13
2019-03-08T22:17:31.726Z,2.90
2019-03-08T22:20:02.538Z,3.20
2019-03-08T22:22:31.820Z,2.93
2019-03-08T22:25:01.246Z,3.10
2019-03-08T22:27:31.439Z,3.33
2019-03-08T22:30:01.713Z,3.40
2019-03-08T22:32:34.001Z,2.77
2019-03-08T22:35:03.784Z,2.70
2019-03-08T22:37:33.063Z,3.10
2019-03-08T22:40:03.184Z,3.30
2019-03-08T22:42:33.391Z,3.10
2019-03-08T22:45:03.340Z,2.97
2019-03-08T22:47:33.588Z,3.00
2019-03-08T22:50:03.924Z,3.20
2019-03-08T22:52:34.231Z,3.23
2019-03-08T22:55:04.432Z,2.60
2019-03-08T22:57:36.526Z,3.10
2019-03-08T23:00:13.875Z,2.90
2019-03-08T23:02:42.757Z,3.00
2019-03-08T23:05:12.167Z,3.03
2019-03-08T23:07:41.452Z,2.93
2019-03-08T23:10:15.501Z,3.00
2019-03-08T23:12:45.744Z,2.80
2019-03-08T23:15:16.016Z,4.00
2019-03-08T23:17:45.288Z,2.90
2019-03-08T23:20:15.532Z,3.37
2019-03-08T23:22:45.873Z,2.77
2019-03-08T23:25:19.562Z,2.70
2019-03-08T23:27:53.509Z,2.77
2019-03-08T23:30:25.755Z,3.20
2019-03-08T23:32:56.113Z,2.83
2019-03-08T23:35:25.414Z,2.93
2019-03-08T23:37:56.167Z,2.80
2019-03-08T23:40:29.900Z,2.70
2019-03-08T23:42:59.177Z,2.83
2019-03-08T23:45:29.454Z,2.73
2019-03-08T23:47:58.730Z,2.80
2019-03-08T23:50:29.189Z,2.90
2019-03-08T23:52:57.935Z,3.10
2019-03-08T23:55:27.219Z,3.50
2019-03-08T23:57:57.457Z,3.17
